createdAt,value
2019-03-10T00:02:50.139Z,8.08
2019-03-10T00:05:55.290Z,8.07
2019-03-10T00:09:00.446Z,7.90
2019-03-10T00:12:07.171Z,7.95
2019-03-10T00:15:12.594Z,7.73
2019-03-10T00:18:18.012Z,7.72
2019-03-10T00:21:23.290Z,7.58
2019-03-10T00:24:28.372Z,7.62
2019-03-10T00:27:33.825Z,7.78
2019-03-10T00:30:39.076Z,7.88
2019-03-10T00:33:44.308Z,7.78
2019-03-10T00:36:49.394Z,7.85
2019-03-10T00:40:31.209Z,8.29
2019-03-10T00:44:12.240Z,8.13
2019-03-10T00:47:46.137Z,8.28
2019-03-10T00:51:29.974Z,8.21
2019-03-10T00:54:35.191Z,8.49
2019-03-10T00:57:40.394Z,8.73
2019-03-10T01:00:45.580Z,8.75
2019-03-10T01:03:50.726Z,8.96
2019-03-10T01:06:56.786Z,8.77
2019-03-10T01:10:01.979Z,9.02
2019-03-10T01:13:09.729Z,8.98
2019-03-10T01:16:15.037Z,8.61
2019-03-10T01:19:20.680Z,8.64
2019-03-10T01:22:26.209Z,8.80
2019-03-10T01:25:31.358Z,9.08
2019-03-10T01:28:36.503Z,9.06
2019-03-10T01:32:31.001Z,9.13
2019-03-10T01:35:39.031Z,9.00
2019-03-10T01:38:44.761Z,9.03
2019-03-10T01:41:49.850Z,8.98
2019-03-10T01:44:54.963Z,8.96
2019-03-10T01:48:00.090Z,8.86
2019-03-10T01:51:05.259Z,8.98
2019-03-10T01:54:10.530Z,9.06
2019-03-10T01:57:16.624Z,8.98
2019-03-10T02:00:21.813Z,9.03
2019-03-10T02:03:27.026Z,9.04
2019-03-10T02:06:33.079Z,8.85
2019-03-10T02:09:38.258Z,8.60
2019-03-10T02:12:43.387Z,8.56
2019-03-10T02:15:48.557Z,8.48
2019-03-10T02:18:53.650Z,8.38
2019-03-10T02:21:58.769Z,8.23
2019-03-10T02:25:04.190Z,8.27
2019-03-10T02:28:09.336Z,8.40
2019-03-10T02:31:14.478Z,8.38
2019-03-10T02:34:19.594Z,8.37
2019-03-10T02:37:24.735Z,8.12
2019-03-10T02:40:29.882Z,8.03
2019-03-10T02:43:35.024Z,7.75
2019-03-10T02:46:40.198Z,7.64
2019-03-10T02:49:46.375Z,7.47
2019-03-10T02:52:51.565Z,7.56
2019-03-10T02:55:56.673Z,7.43
2019-03-10T02:59:01.844Z,7.33
2019-03-10T03:02:06.944Z,7.33
2019-03-10T03:05:12.203Z,7.27
2019-03-10T03:08:17.486Z,7.29
2019-03-10T03:11:22.579Z,7.18
2019-03-10T03:14:28.972Z,7.19
2019-03-10T03:17:34.292Z,7.11
2019-03-10T03:20:39.531Z,7.08
2019-03-10T03:23:44.647Z,7.16
2019-03-10T03:26:49.754Z,7.13
2019-03-10T03:29:54.903Z,7.08
2019-03-10T03:33:00.071Z,7.21
2019-03-10T03:36:21.466Z,7.16
2019-03-10T03:39:32.800Z,7.22
2019-03-10T03:42:37.936Z,7.10
2019-03-10T03:45:43.074Z,7.25
2019-03-10T03:48:48.213Z,7.15
2019-03-10T03:51:53.330Z,7.09
2019-03-10T03:54:58.472Z,7.16
2019-03-10T03:58:03.570Z,7.18
2019-03-10T04:01:30.362Z,7.18
2019-03-10T04:04:35.537Z,7.06
2019-03-10T04:07:40.751Z,7.09
2019-03-10T04:10:45.936Z,7.05
2019-03-10T04:13:51.016Z,7.04
2019-03-10T04:16:56.147Z,7.05
2019-03-10T04:20:01.550Z,7.22
2019-03-10T04:23:08.128Z,7.07
2019-03-10T04:26:13.198Z,7.25
2019-03-10T04:29:18.324Z,7.19
2019-03-10T04:32:23.439Z,7.20
2019-03-10T04:35:28.578Z,7.22
2019-03-10T04:38:33.733Z,7.17
2019-03-10T04:41:38.859Z,7.13
2019-03-10T04:44:44.050Z,7.08
2019-03-10T04:47:49.270Z,7.04
2019-03-10T04:50:54.431Z,7.06
2019-03-10T04:53:59.577Z,7.16
2019-03-10T04:57:10.558Z,7.07
2019-03-10T05:00:15.699Z,7.03
2019-03-10T05:03:20.889Z,7.16
2019-03-10T05:06:26.114Z,7.07
2019-03-10T05:09:31.199Z,7.02
2019-03-10T05:12:36.330Z,7.10
2019-03-10T05:15:41.430Z,6.99
2019-03-10T05:18:46.566Z,6.97
2019-03-10T05:21:51.669Z,6.98
2019-03-10T05:24:56.815Z,7.01
2019-03-10T05:28:01.899Z,7.00
2019-03-10T05:31:07.060Z,7.02
2019-03-10T05:34:12.292Z,6.97
2019-03-10T05:37:17.440Z,6.94
2019-03-10T05:40:22.724Z,6.95
2019-03-10T05:43:27.905Z,6.88
2019-03-10T05:46:33.043Z,6.92
2019-03-10T05:49:38.182Z,6.90
2019-03-10T05:52:43.418Z,6.94
2019-03-10T05:55:48.521Z,6.89
2019-03-10T05:58:53.649Z,6.86
2019-03-10T06:01:58.816Z,6.91
2019-03-10T06:05:05.960Z,6.89
2019-03-10T06:08:10.895Z,6.98
2019-03-10T06:11:16.012Z,6.92
2019-03-10T06:14:21.123Z,6.90
2019-03-10T06:17:26.292Z,6.97
2019-03-10T06:20:31.437Z,7.07
2019-03-10T06:23:36.612Z,6.95
2019-03-10T06:26:41.824Z,6.97
2019-03-10T06:29:46.913Z,6.94
2019-03-10T06:32:52.029Z,6.96
2019-03-10T06:35:57.219Z,6.96
2019-03-10T06:39:02.321Z,6.99
2019-03-10T06:42:08.927Z,7.14
2019-03-10T06:45:14.084Z,7.16
2019-03-10T06:48:19.226Z,7.04
2019-03-10T06:51:24.336Z,7.14
2019-03-10T06:54:29.554Z,7.16
2019-03-10T06:57:34.706Z,7.10
2019-03-10T07:00:41.026Z,7.14
2019-03-10T07:03:46.099Z,7.41
2019-03-10T07:06:51.306Z,7.32
2019-03-10T07:09:56.482Z,7.38
2019-03-10T07:13:01.663Z,7.34
2019-03-10T07:16:06.787Z,7.37
2019-03-10T07:19:11.983Z,7.37
2019-03-10T07:22:17.092Z,7.27
2019-03-10T07:25:22.389Z,7.37
2019-03-10T07:28:31.775Z,7.37
2019-03-10T07:31:50.989Z,7.38
2019-03-10T07:35:19.808Z,7.58
2019-03-10T07:38:41.454Z,7.57
2019-03-10T07:42:04.211Z,7.42
2019-03-10T07:45:23.162Z,7.54
2019-03-10T07:48:45.867Z,7.62
2019-03-10T07:52:05.992Z,7.92
2019-03-10T07:55:21.260Z,7.90
2019-03-10T07:58:38.050Z,7.79
2019-03-10T08:02:02.109Z,7.80
2019-03-10T08:05:32.140Z,7.98
2019-03-10T08:08:46.256Z,8.03
2019-03-10T08:12:10.369Z,8.21
2019-03-10T08:15:34.969Z,8.31
2019-03-10T08:19:11.227Z,8.26
2019-03-10T08:22:28.916Z,8.29
2019-03-10T08:25:52.900Z,8.12
2019-03-10T08:29:32.635Z,8.35
2019-03-10T08:32:55.732Z,8.31
2019-03-10T08:36:29.187Z,8.22
2019-03-10T08:39:53.849Z,8.34
2019-03-10T08:43:17.960Z,8.42
2019-03-10T08:46:42.019Z,8.50
2019-03-10T08:50:06.211Z,8.65
2019-03-10T08:53:18.836Z,9.03
2019-03-10T08:56:52.209Z,9.12
2019-03-10T09:00:19.135Z,9.19
2019-03-10T09:03:42.340Z,9.13
2019-03-10T09:07:06.492Z,9.25
2019-03-10T09:10:34.088Z,9.42
2019-03-10T09:13:56.100Z,9.67
2019-03-10T09:17:09.110Z,9.83
2019-03-10T09:20:25.157Z,10.22
2019-03-10T09:23:51.351Z,10.74
2019-03-10T09:27:30.576Z,11.19
2019-03-10T09:30:56.609Z,11.37
2019-03-10T09:34:19.368Z,11.72
2019-03-10T09:37:33.178Z,11.61
2019-03-10T09:40:56.440Z,11.58
2019-03-10T09:44:23.747Z,11.99
2019-03-10T09:47:47.582Z,12.36
2019-03-10T09:51:08.700Z,12.62
2019-03-10T09:54:28.448Z,12.71
2019-03-10T09:58:01.971Z,13.01
2019-03-10T10:01:32.418Z,13.35
2019-03-10T10:05:14.626Z,13.62
2019-03-10T10:08:38.772Z,13.27
2019-03-10T10:12:13.078Z,13.27
2019-03-10T10:15:31.163Z,13.37
2019-03-10T10:18:53.845Z,13.37
2019-03-10T10:22:10.298Z,13.92
2019-03-10T10:25:29.385Z,13.69
2019-03-10T10:28:40.243Z,13.27
2019-03-10T10:32:04.368Z,13.23
2019-03-10T10:35:47.301Z,13.27
2019-03-10T10:39:09.948Z,13.44
2019-03-10T10:42:37.175Z,13.77
2019-03-10T10:46:00.165Z,14.25
2019-03-10T10:49:17.874Z,14.30
2019-03-10T10:52:31.701Z,13.54
2019-03-10T10:56:08.209Z,13.01
2019-03-10T10:59:29.399Z,12.73
2019-03-10T11:02:48.607Z,12.52
2019-03-10T11:06:15.581Z,12.38
2019-03-10T11:09:30.590Z,12.13
2019-03-10T11:12:53.148Z,11.99
2019-03-10T11:16:20.095Z,11.86
2019-03-10T11:19:34.713Z,12.10
2019-03-10T11:22:50.673Z,11.95
2019-03-10T11:26:08.618Z,11.92
2019-03-10T11:29:29.618Z,11.97
2019-03-10T11:32:42.195Z,11.75
2019-03-10T11:36:04.041Z,11.68
2019-03-10T11:39:32.389Z,11.59
2019-03-10T11:42:51.576Z,11.46
2019-03-10T11:46:29.215Z,11.45
2019-03-10T11:49:50.675Z,11.75
2019-03-10T11:53:19.406Z,11.96
2019-03-10T11:56:34.062Z,12.26
2019-03-10T11:59:44.377Z,12.52
2019-03-10T12:03:08.206Z,12.74
2019-03-10T12:06:32.344Z,12.78
2019-03-10T12:09:37.532Z,12.95
2019-03-10T12:12:42.693Z,13.08
2019-03-10T12:15:47.841Z,13.25
2019-03-10T12:18:53.017Z,13.01
2019-03-10T12:21:58.184Z,13.28
2019-03-10T12:25:03.323Z,13.22
2019-03-10T12:28:08.538Z,13.42
2019-03-10T12:31:13.668Z,13.50
2019-03-10T12:34:18.793Z,13.35
2019-03-10T12:37:23.960Z,13.38
2019-03-10T12:40:29.099Z,12.85
2019-03-10T12:43:34.395Z,12.70
2019-03-10T12:46:39.559Z,12.41
2019-03-10T12:49:44.655Z,12.40
2019-03-10T12:52:49.796Z,12.22
2019-03-10T12:55:54.986Z,12.52
2019-03-10T12:59:00.167Z,12.53
2019-03-10T13:02:05.258Z,12.81
2019-03-10T13:05:10.407Z,12.99
2019-03-10T13:08:15.582Z,12.97
2019-03-10T13:11:20.745Z,13.37
2019-03-10T13:14:26.021Z,13.71
2019-03-10T13:17:31.205Z,14.20
2019-03-10T13:20:36.384Z,13.80
2019-03-10T13:23:41.499Z,13.27
2019-03-10T13:26:46.656Z,13.13
2019-03-10T13:29:51.924Z,12.94
2019-03-10T13:32:57.253Z,12.83
2019-03-10T13:36:02.461Z,12.78
2019-03-10T13:39:08.381Z,12.80
2019-03-10T13:42:15.127Z,13.25
2019-03-10T13:45:20.292Z,13.48
2019-03-10T13:48:25.400Z,13.12
2019-03-10T13:51:30.539Z,13.06
2019-03-10T13:54:35.794Z,13.22
2019-03-10T13:57:40.883Z,13.28
2019-03-10T14:00:45.977Z,13.35
2019-03-10T14:03:51.176Z,13.35
2019-03-10T14:06:56.304Z,13.90
2019-03-10T14:10:01.513Z,14.12
2019-03-10T14:13:07.695Z,14.15
2019-03-10T14:16:12.911Z,14.07
2019-03-10T14:19:18.072Z,14.47
2019-03-10T14:22:23.380Z,14.47
2019-03-10T14:25:28.657Z,14.60
2019-03-10T14:28:33.814Z,14.67
2019-03-10T14:31:38.907Z,14.27
2019-03-10T14:34:44.116Z,14.17
2019-03-10T14:37:49.308Z,14.37
2019-03-10T14:40:54.532Z,14.21
2019-03-10T14:43:59.771Z,14.10
2019-03-10T14:47:05.153Z,14.07
2019-03-10T14:50:11.362Z,14.28
2019-03-10T14:53:16.503Z,14.09
2019-03-10T14:56:21.688Z,13.83
2019-03-10T14:59:26.884Z,14.08
2019-03-10T15:02:32.076Z,13.94
2019-03-10T15:05:37.239Z,13.94
2019-03-10T15:08:42.410Z,13.97
2019-03-10T15:11:48.091Z,14.18
2019-03-10T15:14:53.410Z,13.91
2019-03-10T15:17:58.553Z,13.86
2019-03-10T15:21:03.823Z,13.88
2019-03-10T15:24:08.940Z,13.73
2019-03-10T15:27:23.060Z,13.62
2019-03-10T15:30:21.065Z,13.63
2019-03-10T15:33:27.125Z,13.51
2019-03-10T15:36:32.251Z,13.40
2019-03-10T15:39:37.389Z,13.33
2019-03-10T15:42:42.568Z,13.28
2019-03-10T15:45:47.706Z,13.40
2019-03-10T15:48:52.853Z,13.35
2019-03-10T15:51:57.975Z,13.26
2019-03-10T15:55:03.211Z,13.31
2019-03-10T15:58:08.486Z,13.28
2019-03-10T16:01:13.657Z,13.19
2019-03-10T16:04:24.853Z,13.06
2019-03-10T16:07:30.012Z,12.89
2019-03-10T16:10:35.165Z,12.84
2019-03-10T16:13:40.447Z,12.86
2019-03-10T16:16:45.738Z,12.64
2019-03-10T16:19:51.173Z,12.52
2019-03-10T16:22:57.380Z,12.54
2019-03-10T16:26:02.452Z,12.36
2019-03-10T16:29:08.946Z,12.32
2019-03-10T16:32:14.246Z,12.25
2019-03-10T16:35:21.949Z,12.10
2019-03-10T16:38:26.535Z,12.08
2019-03-10T16:41:31.810Z,12.14
2019-03-10T16:44:37.122Z,11.93
2019-03-10T16:47:42.246Z,11.94
2019-03-10T16:50:47.413Z,11.83
2019-03-10T16:53:52.595Z,11.76
2019-03-10T16:56:58.828Z,11.76
2019-03-10T17:00:04.086Z,11.66
2019-03-10T17:03:10.402Z,11.53
2019-03-10T17:06:15.584Z,11.44
2019-03-10T17:09:21.160Z,11.48
2019-03-10T17:12:26.378Z,11.47
2019-03-10T17:15:31.510Z,11.43
2019-03-10T17:18:36.749Z,11.33
2019-03-10T17:21:42.259Z,11.21
2019-03-10T17:24:47.423Z,11.26
2019-03-10T17:27:52.641Z,11.20
2019-03-10T17:30:57.786Z,11.16
2019-03-10T17:34:03.124Z,11.25
2019-03-10T17:37:08.310Z,11.18
2019-03-10T17:40:15.666Z,11.08
2019-03-10T17:43:20.820Z,10.98
2019-03-10T17:46:25.991Z,11.09
2019-03-10T17:49:31.089Z,10.97
2019-03-10T17:52:36.260Z,10.86
2019-03-10T17:55:41.418Z,10.88
2019-03-10T17:58:46.636Z,10.85
2019-03-10T18:01:51.776Z,10.90
2019-03-10T18:04:56.930Z,10.79
2019-03-10T18:08:03.177Z,10.75
2019-03-10T18:11:08.405Z,10.61
2019-03-10T18:14:13.668Z,10.74
2019-03-10T18:17:18.948Z,10.74
2019-03-10T18:20:24.115Z,10.73
2019-03-10T18:23:29.258Z,10.70
2019-03-10T18:26:34.432Z,10.65
2019-03-10T18:29:39.609Z,10.55
2019-03-10T18:32:44.781Z,10.52
2019-03-10T18:35:49.891Z,10.09
2019-03-10T18:38:55.142Z,8.55
2019-03-10T18:42:00.366Z,7.27
2019-03-10T18:45:06.222Z,6.89
2019-03-10T18:48:11.419Z,6.76
2019-03-10T18:51:16.597Z,6.62
2019-03-10T18:54:21.770Z,6.43
2019-03-10T18:57:26.953Z,6.00
2019-03-10T19:00:32.190Z,5.92
2019-03-10T19:03:37.437Z,5.76
2019-03-10T19:06:42.723Z,5.76
2019-03-10T19:09:47.838Z,5.66
2019-03-10T19:12:52.988Z,5.65
2019-03-10T19:15:58.196Z,5.74
2019-03-10T19:19:03.370Z,5.71
2019-03-10T19:22:08.523Z,5.67
2019-03-10T19:25:14.094Z,5.76
2019-03-10T19:28:19.309Z,5.78
2019-03-10T19:31:24.471Z,5.70
2019-03-10T19:34:29.627Z,5.75
2019-03-10T19:37:34.705Z,5.83
2019-03-10T19:40:39.823Z,5.85
2019-03-10T19:43:45.020Z,5.78
2019-03-10T19:46:50.198Z,5.92
2019-03-10T19:49:56.420Z,5.79
2019-03-10T19:53:01.578Z,5.78
2019-03-10T19:56:06.819Z,5.73
2019-03-10T19:59:11.974Z,5.85
2019-03-10T20:02:17.228Z,5.88
2019-03-10T20:05:22.423Z,5.78
2019-03-10T20:08:27.613Z,5.78
2019-03-10T20:11:32.842Z,5.94
2019-03-10T20:14:38.040Z,6.10
2019-03-10T20:17:43.226Z,5.98
2019-03-10T20:20:48.465Z,6.07
2019-03-10T20:23:53.694Z,6.08
2019-03-10T20:26:58.873Z,6.16
2019-03-10T20:30:04.625Z,6.22
2019-03-10T20:33:10.609Z,6.16
2019-03-10T20:36:15.731Z,6.21
2019-03-10T20:39:20.902Z,6.16
2019-03-10T20:42:26.066Z,6.27
2019-03-10T20:45:31.266Z,6.24
2019-03-10T20:48:36.449Z,6.32
2019-03-10T20:51:41.671Z,6.16
2019-03-10T20:54:46.804Z,6.40
2019-03-10T20:57:51.918Z,6.43
2019-03-10T21:00:57.067Z,6.46
2019-03-10T21:04:02.482Z,6.50
2019-03-10T21:07:10.121Z,6.45
2019-03-10T21:10:15.378Z,6.34
2019-03-10T21:13:20.526Z,6.26
2019-03-10T21:16:25.713Z,6.30
2019-03-10T21:19:30.857Z,6.38
2019-03-10T21:22:36.008Z,6.33
2019-03-10T21:25:41.223Z,6.30
2019-03-10T21:28:46.401Z,6.28
2019-03-10T21:31:51.604Z,6.13
2019-03-10T21:34:56.831Z,6.04
2019-03-10T21:38:01.947Z,6.04
2019-03-10T21:41:13.981Z,5.97
2019-03-10T21:44:13.979Z,5.90
2019-03-10T21:47:19.170Z,5.84
2019-03-10T21:50:24.348Z,5.81
2019-03-10T21:53:29.535Z,5.64
2019-03-10T21:56:34.724Z,5.56
2019-03-10T21:59:39.893Z,5.56
2019-03-10T22:02:44.988Z,5.54
2019-03-10T22:05:50.158Z,5.48
2019-03-10T22:08:55.395Z,5.33
2019-03-10T22:12:00.653Z,5.40
2019-03-10T22:15:06.737Z,5.45
2019-03-10T22:18:13.490Z,5.36
2019-03-10T22:21:18.691Z,5.44
2019-03-10T22:24:23.793Z,5.41
2019-03-10T22:27:29.027Z,5.25
2019-03-10T22:30:34.221Z,5.27
2019-03-10T22:33:39.514Z,5.30
2019-03-10T22:36:44.705Z,5.16
2019-03-10T22:39:49.942Z,5.19
2019-03-10T22:42:55.194Z,5.31
2019-03-10T22:46:00.441Z,5.28
2019-03-10T22:49:05.620Z,5.38
2019-03-10T22:52:10.781Z,5.45
2019-03-10T22:55:15.859Z,5.51
2019-03-10T22:58:21.161Z,5.45
2019-03-10T23:01:26.364Z,5.23
2019-03-10T23:04:31.586Z,5.07
2019-03-10T23:07:36.738Z,4.89
2019-03-10T23:10:42.878Z,4.75
2019-03-10T23:13:47.986Z,4.55
2019-03-10T23:16:53.127Z,4.50
2019-03-10T23:19:58.227Z,4.66
2019-03-10T23:23:03.346Z,4.43
2019-03-10T23:26:08.440Z,4.37
2019-03-10T23:29:13.696Z,4.07
2019-03-10T23:32:18.764Z,3.58
2019-03-10T23:35:23.992Z,3.43
2019-03-10T23:38:29.240Z,3.22
2019-03-10T23:41:34.373Z,3.35
2019-03-10T23:44:39.505Z,3.34
2019-03-10T23:47:44.739Z,3.36
2019-03-10T23:50:49.859Z,3.44
2019-03-10T23:53:54.938Z,3.43
2019-03-10T23:57:00.042Z,3.32
